createdAt,value
2023-04-11T00:01:10.585Z,87.73
2023-04-11T00:06:13.121Z,87.51
2023-04-11T00:11:15.530Z,87.57
2023-04-11T00:16:19.574Z,87.52
2023-04-11T00:21:21.585Z,87.62
2023-04-11T00:26:23.480Z,87.47
2023-04-11T00:31:26.257Z,87.37
2023-04-11T00:36:28.252Z,87.52
2023-04-11T00:41:30.399Z,87.77
2023-04-11T00:46:33.782Z,87.98
2023-04-11T00:51:35.896Z,87.94
2023-04-11T00:56:37.950Z,87.83
2023-04-11T01:01:41.734Z,87.58
2023-04-11T01:06:47.727Z,87.48
2023-04-11T01:11:51.684Z,87.48
2023-04-11T01:16:56.540Z,87.75
2023-04-11T01:22:01.792Z,87.70
2023-04-11T01:27:04.174Z,87.76
2023-04-11T01:32:06.506Z,87.86
2023-04-11T01:37:09.222Z,87.98
2023-04-11T01:42:12.752Z,87.86
2023-04-11T01:47:14.918Z,87.90
2023-04-11T01:52:17.505Z,87.95
2023-04-11T01:57:19.291Z,87.52
2023-04-11T02:02:22.420Z,87.13
2023-04-11T02:07:24.802Z,87.38
2023-04-11T02:12:27.568Z,87.19
2023-04-11T02:17:31.116Z,87.03
2023-04-11T02:22:33.322Z,87.26
2023-04-11T02:27:35.728Z,87.62
2023-04-11T02:32:38.411Z,87.54
2023-04-11T02:37:40.388Z,87.93
2023-04-11T02:42:43.371Z,87.94
2023-04-11T02:47:46.060Z,88.39
2023-04-11T02:52:50.864Z,88.16
2023-04-11T02:57:55.670Z,88.30
2023-04-11T03:02:59.207Z,88.23
2023-04-11T03:08:03.137Z,88.19
2023-04-11T03:13:07.015Z,88.31
2023-04-11T03:18:08.930Z,88.30
2023-04-11T03:23:13.178Z,88.64
2023-04-11T03:28:15.543Z,88.45
2023-04-11T03:33:18.728Z,88.17
2023-04-11T03:38:21.341Z,88.28
2023-04-11T03:43:23.544Z,88.24
2023-04-11T03:48:26.630Z,88.33
2023-04-11T03:53:33.882Z,88.57
2023-04-11T03:58:40.391Z,88.38
2023-04-11T04:03:44.154Z,88.40
2023-04-11T04:08:48.429Z,88.60
2023-04-11T04:13:51.443Z,88.75
2023-04-11T04:18:54.565Z,88.83
2023-04-11T04:23:58.095Z,88.81
2023-04-11T04:29:10.126Z,89.02
2023-04-11T04:34:31.318Z,89.24
2023-04-11T04:39:34.392Z,89.13
2023-04-11T04:44:37.707Z,89.22
2023-04-11T04:49:46.450Z,89.17
2023-04-11T04:54:48.507Z,89.48
2023-04-11T04:59:50.468Z,89.55
2023-04-11T05:04:54.577Z,89.41
2023-04-11T05:09:57.656Z,89.42
2023-04-11T05:15:00.620Z,89.53
2023-04-11T05:20:06.359Z,89.49
2023-04-11T05:25:11.673Z,89.29
2023-04-11T05:30:14.679Z,89.26
2023-04-11T05:35:17.360Z,89.31
2023-04-11T05:40:25.584Z,89.55
2023-04-11T05:45:27.631Z,89.52
2023-04-11T05:50:29.601Z,89.41
2023-04-11T05:55:32.080Z,88.83
2023-04-11T06:00:34.612Z,88.08
2023-04-11T06:05:37.802Z,87.89
2023-04-11T06:10:40.258Z,87.65
2023-04-11T06:15:42.315Z,87.04
2023-04-11T06:20:46.273Z,86.27
2023-04-11T06:25:48.385Z,86.16
2023-04-11T06:30:50.317Z,85.71
2023-04-11T06:35:52.442Z,86.03
2023-04-11T06:40:56.332Z,86.70
2023-04-11T06:45:58.553Z,86.54
2023-04-11T06:51:00.329Z,86.45
2023-04-11T06:56:02.362Z,86.84
2023-04-11T07:01:04.235Z,86.07
2023-04-11T07:06:07.581Z,86.60
2023-04-11T07:11:09.922Z,86.68
2023-04-11T07:16:12.061Z,86.22
2023-04-11T07:21:15.242Z,85.45
2023-04-11T07:26:18.033Z,84.70
2023-04-11T07:31:21.614Z,84.36
2023-04-11T07:36:23.879Z,84.00
2023-04-11T07:41:25.666Z,83.94
2023-04-11T07:46:27.654Z,83.69
2023-04-11T07:51:29.461Z,83.06
2023-04-11T07:56:31.359Z,82.39
2023-04-11T08:01:33.207Z,82.86
2023-04-11T08:06:35.721Z,82.30
2023-04-11T08:11:39.349Z,81.99
2023-04-11T08:16:41.537Z,81.25
2023-04-11T08:21:43.376Z,80.91
2023-04-11T08:26:45.952Z,80.30
2023-04-11T08:31:47.731Z,79.50
2023-04-11T08:36:49.701Z,78.94
2023-04-11T08:41:51.692Z,77.69
2023-04-11T08:46:53.728Z,76.85
2023-04-11T08:51:56.215Z,76.20
2023-04-11T08:56:58.286Z,76.49
2023-04-11T09:02:09.526Z,75.17
2023-04-11T09:07:12.152Z,73.36
2023-04-11T09:12:14.447Z,73.66
2023-04-11T09:17:17.758Z,72.93
2023-04-11T09:22:19.570Z,71.79
2023-04-11T09:27:24.554Z,72.46
2023-04-11T09:32:34.711Z,71.85
2023-04-11T09:37:45.491Z,71.51
2023-04-11T09:42:48.796Z,69.36
2023-04-11T09:47:53.555Z,69.14
2023-04-11T09:52:58.869Z,68.78
2023-04-11T09:58:01.523Z,68.59
2023-04-11T10:03:03.594Z,68.41
2023-04-11T10:08:22.936Z,66.84
2023-04-11T10:13:45.136Z,65.84
2023-04-11T10:18:53.293Z,66.88
2023-04-11T10:24:17.168Z,65.17
2023-04-11T10:29:30.170Z,65.16
2023-04-11T10:34:32.396Z,64.31
2023-04-11T10:40:04.865Z,64.00
2023-04-11T10:45:29.282Z,62.46
2023-04-11T10:50:31.619Z,61.54
2023-04-11T10:55:48.429Z,61.21
2023-04-11T11:00:53.794Z,60.62
2023-04-11T11:05:59.885Z,61.16
2023-04-11T11:11:08.130Z,60.72
2023-04-11T11:16:14.699Z,59.29
2023-04-11T11:21:26.714Z,59.55
2023-04-11T11:26:36.983Z,56.92
2023-04-11T11:31:45.934Z,56.60
2023-04-11T11:36:48.081Z,56.83
2023-04-11T11:41:51.569Z,55.49
2023-04-11T11:47:17.420Z,55.97
2023-04-11T11:52:34.994Z,56.51
2023-04-11T11:57:37.577Z,56.40
2023-04-11T12:02:40.963Z,56.84
2023-04-11T12:07:42.876Z,56.56
2023-04-11T12:12:53.357Z,56.13
2023-04-11T12:17:56.195Z,55.56
2023-04-11T12:22:58.676Z,56.38
2023-04-11T12:28:00.493Z,55.39
2023-04-11T12:33:02.696Z,54.86
2023-04-11T12:38:04.600Z,54.76
2023-04-11T12:43:06.581Z,53.51
2023-04-11T12:48:08.520Z,54.17
2023-04-11T12:53:10.705Z,53.69
2023-04-11T12:58:12.453Z,54.76
2023-04-11T13:03:14.598Z,54.08
2023-04-11T13:08:16.869Z,54.27
2023-04-11T13:13:19.095Z,54.05
2023-04-11T13:18:21.089Z,54.43
2023-04-11T13:23:23.541Z,54.59
2023-04-11T13:28:25.475Z,55.28
2023-04-11T13:33:27.617Z,55.24
2023-04-11T13:38:29.482Z,55.54
2023-04-11T13:43:31.891Z,55.99
2023-04-11T13:48:35.647Z,55.89
2023-04-11T13:53:37.614Z,56.79
2023-04-11T13:58:39.504Z,56.99
2023-04-11T14:03:43.001Z,57.33
2023-04-11T14:08:45.407Z,56.60
2023-04-11T14:13:47.581Z,57.52
2023-04-11T14:18:49.458Z,58.07
2023-04-11T14:23:51.924Z,58.96
2023-04-11T14:28:53.849Z,59.94
2023-04-11T14:33:56.195Z,60.30
2023-04-11T14:38:58.084Z,61.43
2023-04-11T14:44:00.611Z,62.54
2023-04-11T14:49:02.707Z,63.85
2023-04-11T14:54:04.799Z,65.02
2023-04-11T14:59:07.747Z,66.68
2023-04-11T15:04:09.936Z,68.07
2023-04-11T15:09:13.090Z,69.27
2023-04-11T15:14:15.870Z,70.37
2023-04-11T15:19:17.883Z,70.88
2023-04-11T15:24:20.027Z,72.13
2023-04-11T15:29:21.976Z,72.91
2023-04-11T15:34:24.854Z,73.88
2023-04-11T15:39:27.253Z,74.82
2023-04-11T15:44:29.740Z,75.52
2023-04-11T15:49:31.811Z,76.33
2023-04-11T15:54:33.923Z,77.14
2023-04-11T15:59:37.977Z,77.48
2023-04-11T16:04:44.000Z,77.95
2023-04-11T16:09:47.257Z,78.15
2023-04-11T16:14:49.309Z,79.16
2023-04-11T16:19:52.639Z,79.76
2023-04-11T16:24:56.368Z,79.85
2023-04-11T16:30:01.272Z,80.54
2023-04-11T16:35:03.531Z,80.69
2023-04-11T16:40:11.262Z,80.98
2023-04-11T16:45:14.296Z,80.86
2023-04-11T16:50:17.639Z,81.05
2023-04-11T16:55:20.090Z,81.01
2023-04-11T17:00:22.146Z,81.58
2023-04-11T17:05:24.121Z,81.83
2023-04-11T17:10:26.446Z,82.13
2023-04-11T17:15:28.857Z,82.57
2023-04-11T17:20:31.205Z,82.43
2023-04-11T17:25:34.307Z,82.98
2023-04-11T17:30:36.556Z,82.64
2023-04-11T17:35:38.937Z,82.45
2023-04-11T17:40:41.420Z,82.81
2023-04-11T17:45:43.921Z,82.71
2023-04-11T17:50:46.362Z,83.02
2023-04-11T17:55:48.679Z,82.78
2023-04-11T18:00:56.680Z,83.15
2023-04-11T18:06:00.094Z,83.76
2023-04-11T18:11:03.558Z,83.52
2023-04-11T18:16:06.255Z,83.99
2023-04-11T18:21:08.358Z,83.79
2023-04-11T18:26:10.941Z,83.85
2023-04-11T18:31:12.876Z,84.22
2023-04-11T18:36:16.970Z,84.14
2023-04-11T18:41:20.220Z,84.39
2023-04-11T18:46:22.716Z,84.44
2023-04-11T18:51:26.434Z,84.71
2023-04-11T18:56:28.639Z,84.77
2023-04-11T19:01:31.687Z,84.86
2023-04-11T19:06:35.419Z,84.97
2023-04-11T19:11:41.430Z,84.92
2023-04-11T19:16:44.265Z,84.85
2023-04-11T19:21:47.197Z,84.72
2023-04-11T19:26:50.975Z,84.81
2023-04-11T19:31:52.805Z,85.04
2023-04-11T19:36:55.647Z,85.16
2023-04-11T19:41:57.593Z,85.24
2023-04-11T19:46:59.702Z,85.11
2023-04-11T19:52:01.561Z,84.72
2023-04-11T19:57:03.912Z,85.08
2023-04-11T20:02:06.088Z,85.15
2023-04-11T20:07:08.215Z,85.35
2023-04-11T20:12:11.130Z,85.27
2023-04-11T20:17:15.583Z,85.39
2023-04-11T20:22:19.146Z,85.50
2023-04-11T20:27:21.438Z,85.47
2023-04-11T20:32:23.287Z,85.59
2023-04-11T20:37:25.782Z,85.55
2023-04-11T20:42:30.938Z,85.50
2023-04-11T20:47:37.714Z,85.72
2023-04-11T20:52:45.832Z,85.58
2023-04-11T20:57:47.944Z,85.36
2023-04-11T21:02:50.560Z,85.21
2023-04-11T21:07:54.486Z,85.37
2023-04-11T21:13:02.394Z,85.23
2023-04-11T21:18:07.283Z,85.31
2023-04-11T21:23:09.606Z,85.13
2023-04-11T21:28:11.974Z,85.44
2023-04-11T21:33:13.838Z,85.70
2023-04-11T21:38:15.982Z,85.67
2023-04-11T21:43:18.502Z,85.82
2023-04-11T21:48:20.940Z,85.71
2023-04-11T21:53:24.456Z,85.65
2023-04-11T21:58:29.916Z,85.78
2023-04-11T22:03:32.756Z,85.97
2023-04-11T22:08:39.097Z,85.70
2023-04-11T22:13:46.221Z,85.71
2023-04-11T22:18:49.098Z,85.63
2023-04-11T22:23:54.837Z,85.69
2023-04-11T22:28:58.372Z,85.69
2023-04-11T22:34:01.953Z,85.98
2023-04-11T22:39:04.978Z,85.70
2023-04-11T22:44:06.959Z,85.97
2023-04-11T22:49:12.547Z,86.02
2023-04-11T22:54:15.666Z,85.88
2023-04-11T22:59:17.764Z,86.03
2023-04-11T23:04:20.881Z,86.08
2023-04-11T23:09:23.846Z,85.91
2023-04-11T23:14:33.560Z,85.99
2023-04-11T23:19:35.542Z,86.10
2023-04-11T23:24:37.673Z,86.17
2023-04-11T23:29:39.769Z,86.11
2023-04-11T23:34:42.148Z,86.06
2023-04-11T23:39:53.191Z,85.97
2023-04-11T23:44:55.646Z,85.88
2023-04-11T23:50:03.033Z,86.05
2023-04-11T23:55:05.495Z,85.92
